Time;durP1;ratioP1;P1;durP2;ratioP2;P2;SDS_P1;SDS_P2;PMS_P1;PMS_P2;Temp;Humidity;BMP_temperature;BMP_pressure;BME280_temperature;BME280_humidity;BME280_pressure;Samples;Min_cycle;Max_cycle;Signal;HPM_P1;HPM_P2
2023/09/23 00:00:18;;;;;;;0.73;0.40;;;23.40;50.00;;;;;;5015047;28;20159;-55
2023/09/23 00:02:44;;;;;;;0.68;0.20;;;23.40;49.90;;;;;;5025633;28;20041;-56
2023/09/23 00:05:11;;;;;;;0.70;0.50;;;23.30;49.80;;;;;;5029902;28;20095;-55
2023/09/23 00:07:41;;;;;;;0.35;0.32;;;23.40;49.90;;;;;;5014851;28;20032;-55
2023/09/23 00:10:11;;;;;;;0.82;0.50;;;23.30;49.70;;;;;;5029010;28;20451;-56
2023/09/23 00:12:40;;;;;;;0.68;0.30;;;23.30;49.70;;;;;;5013242;28;20025;-53
2023/09/23 00:15:07;;;;;;;0.57;0.30;;;23.30;49.70;;;;;;5030387;28;20025;-52
2023/09/23 00:17:38;;;;;;;0.50;0.40;;;23.30;49.70;;;;;;5030888;28;20026;-53
2023/09/23 00:20:14;;;;;;;0.60;0.40;;;23.30;49.60;;;;;;5029842;28;20077;-57
2023/09/23 00:22:40;;;;;;;0.85;0.32;;;23.30;49.60;;;;;;5025913;28;20187;-55
2023/09/23 00:25:07;;;;;;;0.60;0.47;;;23.30;49.60;;;;;;5029391;28;20025;-54
2023/09/23 00:27:34;;;;;;;1.10;0.50;;;23.30;49.50;;;;;;5029648;28;20031;-49
2023/09/23 00:30:03;;;;;;;0.50;0.40;;;23.30;49.50;;;;;;5008192;28;20338;-56
2023/09/23 00:32:28;;;;;;;1.42;0.50;;;23.30;49.50;;;;;;5028763;28;20080;-55
2023/09/23 00:34:54;;;;;;;0.90;0.43;;;23.30;49.40;;;;;;5009138;28;20057;-56
2023/09/23 00:37:20;;;;;;;0.98;0.50;;;23.30;49.40;;;;;;5026180;28;20040;-54
2023/09/23 00:39:48;;;;;;;1.33;0.50;;;23.30;49.40;;;;;;5010882;28;20072;-53
2023/09/23 00:42:17;;;;;;;0.57;0.40;;;23.30;49.30;;;;;;5028500;28;20097;-54
2023/09/23 00:44:44;;;;;;;1.40;0.50;;;23.20;49.30;;;;;;5013399;28;20021;-56
2023/09/23 00:47:13;;;;;;;0.50;0.30;;;23.30;49.30;;;;;;5030580;28;20033;-55
2023/09/23 00:49:44;;;;;;;0.40;0.30;;;23.30;49.30;;;;;;5026135;28;20046;-51
2023/09/23 00:52:14;;;;;;;0.50;0.32;;;23.20;49.20;;;;;;5028447;28;20029;-56
2023/09/23 00:54:49;;;;;;;0.88;0.50;;;23.30;49.20;;;;;;5011927;28;20112;-50
2023/09/23 00:57:17;;;;;;;2.38;0.32;;;23.30;49.20;;;;;;5011552;28;20095;-53
2023/09/23 00:59:43;;;;;;;0.50;0.40;;;23.20;49.10;;;;;;5008798;28;20116;-50
2023/09/23 01:02:13;;;;;;;0.50;0.40;;;23.20;49.10;;;;;;5010010;28;20431;-55
2023/09/23 01:04:39;;;;;;;0.65;0.40;;;23.20;49.10;;;;;;5004699;28;20053;-57
2023/09/23 01:07:09;;;;;;;0.50;0.40;;;23.20;49.10;;;;;;5012644;28;20060;-55
2023/09/23 01:09:35;;;;;;;0.68;0.20;;;23.20;49.00;;;;;;5013072;28;20037;-57
2023/09/23 01:12:01;;;;;;;0.47;0.30;;;23.20;49.00;;;;;;5030634;28;20067;-55
2023/09/23 01:14:27;;;;;;;0.50;0.30;;;23.20;49.00;;;;;;5015224;28;20353;-54
2023/09/23 01:16:53;;;;;;;0.60;0.40;;;23.20;49.00;;;;;;5011113;28;20029;-53
2023/09/23 01:19:23;;;;;;;0.93;0.40;;;23.20;49.00;;;;;;5024899;28;20317;-57
2023/09/23 01:21:49;;;;;;;0.73;0.50;;;23.20;48.90;;;;;;5027280;28;20324;-55
2023/09/23 01:24:17;;;;;;;1.58;0.40;;;23.20;48.90;;;;;;5027842;28;20417;-53
2023/09/23 01:26:51;;;;;;;0.40;0.30;;;23.20;48.80;;;;;;5012935;28;20087;-57
2023/09/23 01:29:23;;;;;;;2.05;0.50;;;23.20;48.80;;;;;;5025919;28;20041;-50
2023/09/23 01:32:11;;;;;;;0.40;0.40;;;23.20;48.80;;;;;;5028068;28;20025;-56
2023/09/23 01:34:38;;;;;;;1.02;0.38;;;23.20;48.80;;;;;;5028133;28;20065;-54
2023/09/23 01:37:05;;;;;;;0.50;0.40;;;23.20;48.80;;;;;;5032121;28;20038;-58
2023/09/23 01:39:32;;;;;;;1.17;0.40;;;23.10;48.70;;;;;;5028696;28;20099;-55
2023/09/23 01:41:58;;;;;;;0.60;0.30;;;23.10;48.70;;;;;;5027950;28;20052;-54
2023/09/23 01:44:24;;;;;;;0.70;0.40;;;23.20;48.70;;;;;;4996475;28;20338;-51
2023/09/23 01:46:49;;;;;;;0.60;0.40;;;23.10;48.70;;;;;;5004835;28;20034;-50
2023/09/23 01:49:16;;;;;;;0.50;0.43;;;23.10;48.70;;;;;;5029339;28;20041;-50
2023/09/23 01:51:44;;;;;;;0.90;0.47;;;23.10;48.70;;;;;;5012745;28;20041;-54
2023/09/23 01:54:16;;;;;;;0.77;0.40;;;23.10;48.70;;;;;;5025807;28;20056;-57
2023/09/23 01:56:43;;;;;;;1.70;0.60;;;23.10;48.70;;;;;;5026733;28;20029;-56
2023/09/23 01:59:09;;;;;;;0.70;0.50;;;23.10;48.70;;;;;;5013727;28;20432;-56
2023/09/23 02:01:35;;;;;;;0.50;0.40;;;23.10;48.70;;;;;;5028917;28;20367;-54
2023/09/23 02:04:01;;;;;;;0.88;0.52;;;23.10;48.70;;;;;;5012740;28;20044;-53
2023/09/23 02:06:32;;;;;;;0.70;0.60;;;23.10;48.70;;;;;;5013287;28;20133;-55
2023/09/23 02:08:58;;;;;;;1.58;0.70;;;23.10;48.70;;;;;;5029019;28;20156;-55
2023/09/23 02:11:24;;;;;;;0.60;0.55;;;23.10;48.70;;;;;;5033769;28;20109;-55
2023/09/23 02:13:51;;;;;;;0.80;0.50;;;23.10;48.70;;;;;;5016786;28;20040;-54
2023/09/23 02:16:18;;;;;;;1.15;0.70;;;23.10;48.70;;;;;;5016454;28;20044;-55
2023/09/23 02:18:47;;;;;;;0.73;0.50;;;23.10;48.70;;;;;;5032925;28;20486;-55
2023/09/23 02:21:14;;;;;;;0.73;0.50;;;23.10;48.70;;;;;;5031296;28;20033;-56
2023/09/23 02:23:40;;;;;;;0.57;0.50;;;23.10;48.80;;;;;;5009690;28;20376;-57
2023/09/23 02:26:07;;;;;;;0.75;0.60;;;23.10;48.80;;;;;;5033541;28;20021;-55
2023/09/23 02:28:33;;;;;;;0.95;0.60;;;23.10;48.80;;;;;;5030090;28;20376;-55
2023/09/23 02:30:59;;;;;;;0.57;0.52;;;23.00;48.80;;;;;;5033738;28;20034;-53
2023/09/23 02:33:25;;;;;;;0.70;0.60;;;23.10;48.80;;;;;;5007525;28;20036;-54
2023/09/23 02:35:52;;;;;;;0.90;0.70;;;23.10;48.80;;;;;;5033274;28;20040;-55
2023/09/23 02:38:19;;;;;;;1.35;0.57;;;23.10;48.80;;;;;;5031945;28;20117;-56
2023/09/23 02:40:45;;;;;;;0.90;0.70;;;23.00;48.80;;;;;;5029901;28;20099;-54
2023/09/23 02:43:12;;;;;;;1.27;0.80;;;23.00;48.80;;;;;;5042024;28;20037;-54
2023/09/23 02:45:38;;;;;;;0.80;0.60;;;23.00;48.80;;;;;;5027369;28;20100;-56
2023/09/23 02:48:04;;;;;;;1.38;0.70;;;23.00;48.80;;;;;;5033539;28;20141;-52
2023/09/23 02:50:31;;;;;;;0.80;0.80;;;23.00;48.80;;;;;;5031075;28;20121;-54
2023/09/23 02:52:59;;;;;;;1.35;1.02;;;23.00;48.90;;;;;;5030935;28;20105;-57
2023/09/23 02:55:25;;;;;;;1.20;0.80;;;23.00;48.90;;;;;;5014538;28;20041;-53
2023/09/23 02:57:54;;;;;;;0.80;0.70;;;23.00;48.90;;;;;;5027892;28;20033;-56
2023/09/23 03:00:22;;;;;;;0.88;0.70;;;23.00;48.90;;;;;;5032116;28;20026;-54
2023/09/23 03:02:53;;;;;;;1.05;0.85;;;23.00;48.90;;;;;;5028263;28;20026;-51
2023/09/23 03:05:25;;;;;;;3.20;0.77;;;23.00;48.90;;;;;;5012253;28;20032;-54
2023/09/23 03:07:52;;;;;;;1.00;0.90;;;23.00;49.00;;;;;;5012525;28;20404;-53
2023/09/23 03:10:31;;;;;;;1.98;0.70;;;23.00;49.00;;;;;;5012574;28;20322;-54
2023/09/23 03:13:07;;;;;;;1.88;0.95;;;23.00;49.00;;;;;;5026705;28;20390;-49
2023/09/23 03:15:52;;;;;;;0.95;0.70;;;23.00;49.00;;;;;;5030686;28;20033;-56
2023/09/23 03:18:29;;;;;;;3.50;0.70;;;23.00;49.00;;;;;;5042999;28;20109;-50
2023/09/23 03:20:55;;;;;;;1.60;0.90;;;23.00;49.10;;;;;;5031393;28;20132;-54
2023/09/23 03:23:21;;;;;;;1.00;0.80;;;23.00;49.10;;;;;;5013518;28;20025;-51
2023/09/23 03:25:51;;;;;;;1.17;0.70;;;23.00;49.10;;;;;;5011972;28;20037;-53
2023/09/23 03:28:17;;;;;;;1.02;0.77;;;23.00;49.10;;;;;;5014362;28;20135;-53
2023/09/23 03:30:47;;;;;;;1.38;0.95;;;23.00;49.80;;;;;;5011043;28;20112;-52
2023/09/23 03:33:18;;;;;;;1.23;0.88;;;23.00;49.10;;;;;;5016135;28;20417;-54
2023/09/23 03:35:44;;;;;;;2.90;0.88;;;22.90;49.10;;;;;;5012437;28;20025;-52
2023/09/23 03:38:11;;;;;;;1.30;1.10;;;22.90;49.10;;;;;;5009866;28;20059;-52
2023/09/23 03:40:38;;;;;;;2.05;1.10;;;22.90;49.10;;;;;;5029417;28;20033;-53
2023/09/23 03:43:04;;;;;;;1.30;0.75;;;22.90;49.20;;;;;;5006639;28;20393;-51
2023/09/23 03:45:34;;;;;;;1.00;0.75;;;22.90;49.10;;;;;;5011383;28;20119;-51
2023/09/23 03:48:01;;;;;;;1.85;1.00;;;22.90;49.10;;;;;;5026561;28;20099;-52
2023/09/23 03:50:27;;;;;;;1.40;0.80;;;22.90;49.10;;;;;;5029770;28;20076;-53
2023/09/23 03:52:53;;;;;;;0.75;0.68;;;22.90;49.10;;;;;;5014587;28;20033;-50
2023/09/23 03:55:19;;;;;;;1.23;1.10;;;22.90;49.10;;;;;;5032785;28;20036;-52
2023/09/23 03:57:46;;;;;;;1.20;1.00;;;22.90;49.20;;;;;;5010975;28;20655;-53
2023/09/23 04:00:16;;;;;;;1.45;1.10;;;22.90;49.10;;;;;;5031050;28;20029;-51
2023/09/23 04:02:47;;;;;;;1.10;0.88;;;22.90;49.20;;;;;;5030532;28;20389;-51
2023/09/23 04:05:14;;;;;;;1.40;0.98;;;22.90;49.20;;;;;;4991743;28;20021;-55
2023/09/23 04:07:41;;;;;;;0.95;0.85;;;22.90;49.20;;;;;;5030680;28;20095;-54
2023/09/23 04:10:10;;;;;;;1.27;0.98;;;22.90;49.20;;;;;;5028451;28;20057;-57
2023/09/23 04:12:37;;;;;;;1.40;1.00;;;22.90;49.20;;;;;;5015739;28;20057;-51
2023/09/23 04:15:04;;;;;;;1.75;1.25;;;22.90;49.30;;;;;;5031354;28;20052;-51
2023/09/23 04:17:30;;;;;;;1.35;1.10;;;22.90;49.20;;;;;;5031729;28;20044;-51
2023/09/23 04:19:56;;;;;;;1.40;1.08;;;22.90;49.20;;;;;;5024869;28;20030;-53
2023/09/23 04:22:22;;;;;;;1.35;1.20;;;22.90;49.30;;;;;;5023847;28;20026;-52
2023/09/23 04:24:48;;;;;;;1.08;0.98;;;22.90;49.20;;;;;;5028880;28;20030;-53
2023/09/23 04:27:14;;;;;;;1.40;1.05;;;22.90;49.30;;;;;;5023473;28;20030;-51
2023/09/23 04:29:39;;;;;;;1.67;1.13;;;22.90;49.30;;;;;;5025066;28;20048;-51
2023/09/23 04:32:05;;;;;;;2.13;1.15;;;22.90;49.30;;;;;;5031305;28;20410;-55
2023/09/23 04:34:35;;;;;;;1.17;0.90;;;22.90;49.30;;;;;;5029601;28;20456;-52
2023/09/23 04:37:04;;;;;;;1.60;1.20;;;22.90;49.30;;;;;;5027852;28;20029;-55
2023/09/23 04:39:31;;;;;;;1.80;1.17;;;22.90;49.30;;;;;;5012672;28;20385;-54
2023/09/23 04:41:57;;;;;;;2.42;1.50;;;22.90;49.30;;;;;;5029125;28;20044;-52
2023/09/23 04:44:24;;;;;;;2.35;1.42;;;22.90;49.30;;;;;;5011825;28;20090;-56
2023/09/23 04:46:50;;;;;;;1.55;1.30;;;22.80;49.20;;;;;;5024073;28;20026;-50
2023/09/23 04:49:16;;;;;;;1.45;1.30;;;22.80;49.20;;;;;;5028810;28;20055;-55
2023/09/23 04:51:41;;;;;;;1.48;1.20;;;22.80;49.10;;;;;;5010118;28;20026;-51
2023/09/23 04:54:07;;;;;;;2.15;1.38;;;22.80;49.20;;;;;;5028496;28;20091;-50
2023/09/23 04:56:34;;;;;;;1.10;1.00;;;22.80;49.30;;;;;;5025810;28;20393;-50
2023/09/23 04:58:59;;;;;;;2.75;1.38;;;22.90;49.30;;;;;;5032734;28;20039;-51
2023/09/23 05:01:26;;;;;;;1.90;1.33;;;22.90;49.30;;;;;;5027401;28;20021;-50
2023/09/23 05:03:52;;;;;;;1.60;1.40;;;22.80;49.30;;;;;;5028843;28;20037;-49
2023/09/23 05:06:18;;;;;;;1.73;1.42;;;22.90;49.30;;;;;;5024542;28;20437;-54
2023/09/23 05:08:44;;;;;;;1.33;1.20;;;22.90;49.30;;;;;;5030133;28;20026;-53
2023/09/23 05:11:10;;;;;;;1.67;1.38;;;22.80;49.30;;;;;;5028629;28;20025;-52
2023/09/23 05:13:37;;;;;;;1.60;1.30;;;22.80;49.30;;;;;;5028715;28;20032;-48
2023/09/23 05:16:03;;;;;;;1.80;1.20;;;22.80;49.30;;;;;;5027445;28;20056;-56
2023/09/23 05:18:29;;;;;;;1.70;1.40;;;22.80;49.30;;;;;;5029318;28;20037;-53
2023/09/23 05:20:55;;;;;;;1.60;1.20;;;22.80;49.30;;;;;;5030909;28;20093;-55
2023/09/23 05:23:24;;;;;;;1.60;1.10;;;22.80;49.30;;;;;;5029981;28;20364;-51
2023/09/23 05:25:50;;;;;;;1.70;1.10;;;22.80;49.30;;;;;;5028446;28;20113;-51
2023/09/23 05:28:16;;;;;;;1.48;1.33;;;22.80;49.30;;;;;;5029019;28;20037;-54
2023/09/23 05:30:42;;;;;;;1.83;1.30;;;22.80;49.30;;;;;;5029001;28;20360;-54
2023/09/23 05:33:09;;;;;;;1.58;1.10;;;22.80;49.30;;;;;;5032280;28;20039;-50
2023/09/23 05:35:37;;;;;;;2.33;1.20;;;22.80;49.30;;;;;;5026914;28;20029;-50
2023/09/23 05:38:04;;;;;;;1.52;1.23;;;22.80;49.30;;;;;;5032244;28;20333;-55
2023/09/23 05:40:30;;;;;;;2.08;1.40;;;22.80;49.30;;;;;;5033105;28;20032;-54
2023/09/23 05:42:56;;;;;;;2.80;1.42;;;22.80;49.30;;;;;;5032278;28;20040;-55
2023/09/23 05:45:25;;;;;;;2.03;1.08;;;22.80;49.90;;;;;;5031055;28;20021;-54
2023/09/23 05:47:52;;;;;;;1.50;0.90;;;22.80;49.30;;;;;;5031404;28;20095;-55
2023/09/23 05:50:19;;;;;;;1.90;0.90;;;22.80;49.30;;;;;;5013982;28;20065;-56
2023/09/23 05:52:45;;;;;;;2.58;1.10;;;22.80;49.30;;;;;;5034983;28;20352;-54
2023/09/23 05:55:11;;;;;;;2.20;1.10;;;22.80;49.30;;;;;;5029851;28;20033;-52
2023/09/23 05:57:40;;;;;;;1.55;1.10;;;22.80;49.30;;;;;;5031364;28;20527;-52
2023/09/23 06:00:08;;;;;;;1.50;1.10;;;22.80;49.20;;;;;;5027775;28;20136;-55
2023/09/23 06:02:34;;;;;;;1.83;0.98;;;22.80;49.20;;;;;;5029398;28;20032;-53
2023/09/23 06:05:01;;;;;;;2.03;1.10;;;22.80;49.20;;;;;;5004200;28;20029;-52
2023/09/23 06:07:28;;;;;;;2.35;1.23;;;22.80;49.20;;;;;;5030773;28;20040;-57
2023/09/23 06:09:54;;;;;;;1.38;0.90;;;22.80;49.20;;;;;;5028647;28;20120;-52
2023/09/23 06:12:20;;;;;;;1.42;0.95;;;22.80;49.30;;;;;;5030950;28;20109;-52
2023/09/23 06:14:46;;;;;;;1.65;1.08;;;22.80;49.20;;;;;;5030392;28;20337;-52
2023/09/23 06:17:12;;;;;;;1.42;1.00;;;22.80;49.20;;;;;;5033540;28;20033;-55
2023/09/23 06:19:38;;;;;;;1.52;0.85;;;22.80;49.80;;;;;;5031268;28;20085;-54
2023/09/23 06:22:04;;;;;;;1.70;1.00;;;22.80;49.80;;;;;;5033230;28;20030;-54
2023/09/23 06:24:30;;;;;;;1.15;0.75;;;22.80;49.30;;;;;;5034450;28;20025;-56
2023/09/23 06:26:56;;;;;;;1.45;0.95;;;22.80;49.20;;;;;;5029225;28;20060;-54
2023/09/23 06:29:22;;;;;;;1.08;0.85;;;22.80;49.20;;;;;;5045876;28;20080;-54
2023/09/23 06:31:48;;;;;;;1.75;1.10;;;22.80;49.20;;;;;;5036068;28;20033;-59
2023/09/23 06:34:13;;;;;;;1.75;1.02;;;22.80;49.20;;;;;;5034817;28;20390;-60
2023/09/23 06:36:39;;;;;;;1.80;1.17;;;22.80;49.40;;;;;;5036784;28;20126;-55
2023/09/23 06:39:05;;;;;;;2.80;1.10;;;22.80;49.40;;;;;;5029727;28;20028;-57
2023/09/23 06:41:31;;;;;;;1.55;1.00;;;22.90;49.40;;;;;;5031904;28;20071;-55
2023/09/23 06:43:58;;;;;;;2.83;0.82;;;22.80;49.30;;;;;;5034663;28;20099;-56
2023/09/23 06:46:25;;;;;;;1.98;1.05;;;22.90;49.30;;;;;;5033185;28;20025;-56
2023/09/23 06:48:50;;;;;;;2.47;1.15;;;22.90;49.30;;;;;;5035635;28;20100;-53
2023/09/23 06:51:16;;;;;;;2.00;1.10;;;22.90;49.30;;;;;;5017247;28;20028;-54
2023/09/23 06:53:42;;;;;;;1.67;1.08;;;22.90;49.20;;;;;;5035912;28;20404;-56
2023/09/23 06:56:08;;;;;;;4.03;1.10;;;22.90;49.20;;;;;;5031165;28;20034;-56
2023/09/23 06:58:34;;;;;;;1.65;1.08;;;22.80;49.10;;;;;;5032775;28;20120;-55
2023/09/23 07:01:00;;;;;;;3.67;0.90;;;22.90;49.20;;;;;;5031621;28;20029;-54
2023/09/23 07:03:26;;;;;;;1.15;1.05;;;22.90;49.10;;;;;;5036496;28;20389;-55
2023/09/23 07:05:52;;;;;;;1.77;1.20;;;22.90;49.10;;;;;;5034397;28;20349;-56
2023/09/23 07:08:18;;;;;;;1.33;0.90;;;22.80;49.10;;;;;;5034122;28;20062;-58
2023/09/23 07:10:44;;;;;;;2.35;1.00;;;22.80;49.20;;;;;;5016006;28;20048;-53
2023/09/23 07:13:09;;;;;;;2.47;1.20;;;22.90;49.30;;;;;;5018616;28;20033;-53
2023/09/23 07:15:40;;;;;;;1.60;0.98;;;22.90;49.40;;;;;;5051035;28;20033;-52
2023/09/23 07:18:06;;;;;;;1.85;1.00;;;22.90;49.40;;;;;;5014216;28;20034;-56
2023/09/23 07:20:33;;;;;;;1.17;1.00;;;22.90;49.50;;;;;;5023124;28;20481;-53
2023/09/23 07:22:59;;;;;;;2.65;1.20;;;22.90;49.50;;;;;;5033788;28;20078;-50
2023/09/23 07:25:29;;;;;;;1.65;1.10;;;22.90;49.50;;;;;;5040974;28;20037;-53
2023/09/23 07:27:59;;;;;;;1.85;1.00;;;22.90;49.60;;;;;;5053662;28;20041;-54
2023/09/23 07:30:25;;;;;;;1.95;1.08;;;22.90;49.50;;;;;;5053589;28;20041;-55
2023/09/23 07:32:52;;;;;;;1.20;0.95;;;22.90;49.50;;;;;;5047177;28;20136;-57
2023/09/23 07:35:18;;;;;;;1.73;1.00;;;22.90;49.40;;;;;;5024145;28;20021;-57
2023/09/23 07:37:45;;;;;;;1.73;0.80;;;22.90;49.50;;;;;;5045573;28;20024;-53
2023/09/23 07:40:14;;;;;;;0.80;0.80;;;22.90;49.40;;;;;;5022307;28;20060;-55
2023/09/23 07:42:41;;;;;;;1.30;0.90;;;22.90;49.40;;;;;;5021789;28;20101;-59
2023/09/23 07:45:08;;;;;;;1.30;0.70;;;22.90;49.40;;;;;;5032413;28;20030;-58
2023/09/23 07:47:35;;;;;;;1.30;1.05;;;23.00;49.50;;;;;;5025111;28;20045;-57
2023/09/23 07:50:01;;;;;;;1.73;0.90;;;22.90;49.40;;;;;;5043676;28;20407;-58
2023/09/23 07:52:27;;;;;;;2.08;0.80;;;23.00;49.40;;;;;;5013818;28;20032;-50
2023/09/23 07:54:53;;;;;;;3.25;0.70;;;23.00;49.40;;;;;;5012569;28;20035;-55
2023/09/23 07:57:18;;;;;;;1.90;0.77;;;23.00;49.50;;;;;;5013182;28;20117;-59
2023/09/23 07:59:44;;;;;;;1.83;1.10;;;23.00;49.50;;;;;;5025581;28;20025;-55
2023/09/23 08:02:10;;;;;;;1.17;0.75;;;23.00;49.50;;;;;;5038664;28;20140;-57
2023/09/23 08:04:36;;;;;;;1.40;0.80;;;23.00;49.50;;;;;;5032617;28;20105;-53
2023/09/23 08:07:03;;;;;;;2.30;0.90;;;23.00;49.40;;;;;;5028616;28;20053;-52
2023/09/23 08:09:29;;;;;;;0.85;0.70;;;23.00;49.40;;;;;;5013066;28;20025;-55
2023/09/23 08:11:54;;;;;;;1.17;0.70;;;23.00;49.40;;;;;;5012999;28;20045;-58
2023/09/23 08:14:21;;;;;;;2.45;0.80;;;23.00;49.40;;;;;;5032909;28;20437;-62
2023/09/23 08:16:50;;;;;;;2.20;0.80;;;23.10;49.40;;;;;;5033659;28;20037;-60
2023/09/23 08:19:16;;;;;;;2.95;0.65;;;23.00;49.30;;;;;;5030668;28;20389;-56
2023/09/23 08:21:42;;;;;;;1.63;0.77;;;23.10;49.40;;;;;;5035068;28;20094;-55
2023/09/23 08:24:08;;;;;;;1.60;0.80;;;23.10;49.40;;;;;;5031115;28;20111;-55
2023/09/23 08:26:34;;;;;;;1.60;0.90;;;23.10;49.40;;;;;;5035039;28;20117;-56
2023/09/23 08:29:00;;;;;;;1.25;0.68;;;23.10;49.40;;;;;;5029531;28;20038;-55
2023/09/23 08:31:26;;;;;;;1.77;0.80;;;23.10;49.40;;;;;;5007648;28;20084;-55
2023/09/23 08:33:52;;;;;;;2.10;0.70;;;23.10;49.30;;;;;;5031915;28;20033;-56
2023/09/23 08:36:18;;;;;;;1.48;0.70;;;23.10;49.30;;;;;;5034674;28;20330;-55
2023/09/23 08:38:45;;;;;;;1.15;0.60;;;23.10;49.30;;;;;;5031380;28;20362;-56
2023/09/23 08:41:15;;;;;;;1.33;0.70;;;23.10;49.30;;;;;;5030860;28;20033;-56
2023/09/23 08:43:43;;;;;;;2.90;0.75;;;23.10;49.20;;;;;;5027547;28;20040;-55
2023/09/23 08:46:10;;;;;;;1.48;0.77;;;23.10;49.20;;;;;;5023156;28;20093;-55
2023/09/23 08:48:36;;;;;;;2.10;0.90;;;23.10;49.20;;;;;;5026817;28;20045;-56
2023/09/23 08:51:05;;;;;;;2.10;0.90;;;23.10;49.20;;;;;;5027451;28;20026;-56
2023/09/23 08:53:34;;;;;;;1.83;0.98;;;23.10;49.20;;;;;;5029712;28;20107;-53
2023/09/23 08:56:05;;;;;;;2.17;0.70;;;23.10;49.20;;;;;;5034076;28;20113;-55
2023/09/23 08:58:31;;;;;;;1.13;0.65;;;23.10;49.20;;;;;;5023486;28;20038;-54
2023/09/23 09:00:57;;;;;;;2.05;1.00;;;23.10;49.20;;;;;;5012771;28;20030;-57
2023/09/23 09:03:23;;;;;;;2.03;0.82;;;23.10;49.30;;;;;;5029660;28;20033;-57
2023/09/23 09:05:49;;;;;;;3.03;0.90;;;23.20;49.30;;;;;;5033520;28;20029;-56
2023/09/23 09:08:16;;;;;;;1.60;0.70;;;23.20;49.30;;;;;;5034472;28;20037;-58
2023/09/23 09:10:42;;;;;;;1.65;0.85;;;23.20;49.30;;;;;;5031908;28;20045;-59
2023/09/23 09:13:08;;;;;;;2.50;0.93;;;23.10;49.20;;;;;;5032706;28;20103;-59
2023/09/23 09:15:37;;;;;;;1.83;0.77;;;23.10;49.20;;;;;;5035388;28;20017;-54
2023/09/23 09:18:04;;;;;;;1.92;0.80;;;23.20;49.20;;;;;;5035253;28;20124;-58
2023/09/23 09:20:31;;;;;;;0.93;0.70;;;23.10;49.10;;;;;;5033468;28;20091;-59
2023/09/23 09:22:58;;;;;;;0.35;0.32;;;23.20;49.20;;;;;;5032228;28;20021;-60
2023/09/23 09:25:23;;;;;;;1.48;0.68;;;23.20;49.20;;;;;;5036422;28;20084;-57
2023/09/23 09:27:52;;;;;;;1.63;0.70;;;23.20;49.20;;;;;;5038389;28;20373;-57
2023/09/23 09:30:19;;;;;;;0.73;0.50;;;23.20;49.20;;;;;;5033929;28;20029;-57
2023/09/23 09:32:46;;;;;;;1.48;0.57;;;23.20;49.10;;;;;;5034915;28;20055;-55
2023/09/23 09:35:14;;;;;;;1.17;0.60;;;23.20;49.20;;;;;;5034222;28;20025;-58
2023/09/23 09:37:47;;;;;;;1.73;0.80;;;23.20;49.20;;;;;;5015274;28;20033;-58
2023/09/23 09:40:19;;;;;;;0.80;0.60;;;23.20;49.30;;;;;;5036933;28;20136;-58
2023/09/23 09:42:53;;;;;;;2.08;0.60;;;23.20;49.30;;;;;;5032639;28;20566;-57
2023/09/23 09:45:23;;;;;;;0.95;0.73;;;23.20;49.30;;;;;;5030133;28;20464;-56
2023/09/23 09:47:53;;;;;;;1.10;0.70;;;23.10;49.30;;;;;;5032064;28;20340;-59
2023/09/23 09:50:22;;;;;;;1.27;0.60;;;23.20;49.40;;;;;;5032810;28;20033;-58
2023/09/23 09:52:48;;;;;;;2.00;0.88;;;23.20;49.40;;;;;;5036800;28;20132;-58
2023/09/23 09:55:18;;;;;;;2.65;0.73;;;23.10;49.40;;;;;;5034801;28;20033;-48
2023/09/23 09:57:46;;;;;;;2.08;0.80;;;23.20;49.50;;;;;;5034135;28;20029;-59
2023/09/23 10:00:20;;;;;;;0.73;0.50;;;23.20;49.60;;;;;;5032222;28;20033;-56
2023/09/23 10:02:49;;;;;;;0.93;0.60;;;23.20;49.70;;;;;;5035370;28;20032;-53
2023/09/23 10:05:17;;;;;;;1.55;0.70;;;23.20;49.70;;;;;;5033949;28;20112;-58
2023/09/23 10:07:54;;;;;;;1.38;0.70;;;23.20;49.80;;;;;;5045593;28;20382;-59
2023/09/23 10:10:36;;;;;;;0.98;0.73;;;23.20;49.80;;;;;;5013645;28;20041;-60
2023/09/23 10:13:22;;;;;;;0.70;0.52;;;23.20;49.80;;;;;;5031500;28;20040;-61
2023/09/23 10:15:48;;;;;;;1.60;0.88;;;23.20;49.80;;;;;;5030064;28;20479;-61
2023/09/23 10:18:18;;;;;;;3.20;0.82;;;23.20;49.80;;;;;;5034274;28;20057;-59
2023/09/23 10:20:54;;;;;;;1.63;0.75;;;23.20;49.90;;;;;;5037337;28;20033;-58
2023/09/23 10:23:22;;;;;;;1.50;0.70;;;23.20;49.90;;;;;;5035556;28;20076;-56
2023/09/23 10:25:51;;;;;;;1.50;0.75;;;23.20;50.00;;;;;;5044967;28;20026;-58
2023/09/23 10:28:24;;;;;;;1.50;0.68;;;23.20;50.10;;;;;;5032167;28;20105;-56
2023/09/23 10:31:04;;;;;;;1.15;0.57;;;23.30;50.40;;;;;;5033425;28;20354;-58
2023/09/23 10:33:32;;;;;;;1.40;0.60;;;23.30;50.40;;;;;;5031530;28;20029;-61
2023/09/23 10:35:58;;;;;;;1.70;0.68;;;23.30;50.40;;;;;;5031804;28;20044;-60
2023/09/23 10:38:26;;;;;;;2.05;0.70;;;23.30;50.40;;;;;;5032169;28;20091;-56
2023/09/23 10:40:54;;;;;;;2.00;0.70;;;23.30;50.40;;;;;;5032412;28;20139;-57
2023/09/23 10:43:23;;;;;;;1.17;0.70;;;23.30;50.40;;;;;;5032537;28;20110;-58
2023/09/23 10:45:53;;;;;;;3.13;1.00;;;23.30;50.40;;;;;;5034377;28;20093;-57
2023/09/23 10:48:20;;;;;;;1.52;0.80;;;23.40;50.40;;;;;;5031389;28;20128;-64
2023/09/23 10:50:46;;;;;;;1.63;0.63;;;23.40;50.40;;;;;;5032318;28;20136;-59
2023/09/23 10:53:13;;;;;;;2.63;0.70;;;23.30;50.40;;;;;;5031770;28;20072;-57
2023/09/23 10:55:40;;;;;;;2.15;0.68;;;23.40;50.50;;;;;;5030974;28;20776;-51
2023/09/23 10:58:09;;;;;;;1.25;0.50;;;23.40;50.40;;;;;;5029521;28;20077;-57
2023/09/23 11:00:36;;;;;;;1.60;0.60;;;23.40;50.40;;;;;;5031106;28;20025;-56
2023/09/23 11:03:08;;;;;;;1.08;0.60;;;23.40;50.40;;;;;;5031540;28;20033;-57
2023/09/23 11:05:37;;;;;;;1.80;0.93;;;23.40;50.40;;;;;;5029063;28;20067;-61
2023/09/23 11:08:05;;;;;;;0.77;0.52;;;23.40;50.40;;;;;;5031862;28;20052;-59
2023/09/23 11:10:33;;;;;;;1.65;0.70;;;23.40;50.30;;;;;;5028555;28;20116;-60
2023/09/23 11:12:59;;;;;;;1.98;0.80;;;23.40;50.30;;;;;;5028382;28;20030;-62
2023/09/23 11:15:25;;;;;;;0.85;0.60;;;23.40;50.30;;;;;;5029131;28;20036;-57
2023/09/23 11:17:54;;;;;;;1.80;0.75;;;23.40;50.30;;;;;;5028619;28;20116;-58
2023/09/23 11:20:30;;;;;;;1.23;0.70;;;23.40;50.20;;;;;;5030303;28;20402;-61
2023/09/23 11:23:05;;;;;;;1.88;0.60;;;23.40;50.10;;;;;;5028932;28;20029;-59
2023/09/23 11:25:35;;;;;;;2.17;0.63;;;23.50;50.10;;;;;;5030580;28;20577;-60
2023/09/23 11:28:01;;;;;;;1.40;0.60;;;23.50;50.10;;;;;;5029558;28;20087;-59
2023/09/23 11:30:27;;;;;;;1.60;0.68;;;23.40;50.10;;;;;;5025314;28;20042;-58
2023/09/23 11:32:54;;;;;;;1.95;0.70;;;23.50;50.20;;;;;;5028367;28;20382;-60
2023/09/23 11:35:21;;;;;;;1.77;0.70;;;23.50;50.20;;;;;;5024284;28;20037;-61
2023/09/23 11:37:48;;;;;;;1.23;0.50;;;23.50;50.20;;;;;;5026975;28;20022;-61
2023/09/23 11:40:14;;;;;;;1.77;0.60;;;23.50;50.20;;;;;;5017748;28;20022;-60
2023/09/23 11:42:41;;;;;;;1.75;0.63;;;23.60;50.20;;;;;;5037779;28;20108;-60
2023/09/23 11:45:11;;;;;;;1.40;0.50;;;23.60;50.00;;;;;;5024987;28;20033;-61
2023/09/23 11:47:38;;;;;;;1.95;0.60;;;23.70;50.00;;;;;;5005303;28;20025;-59
2023/09/23 11:50:07;;;;;;;2.95;0.60;;;23.70;49.90;;;;;;5031573;28;20037;-60
2023/09/23 11:52:34;;;;;;;4.50;0.90;;;23.70;49.90;;;;;;5029594;28;20129;-58
2023/09/23 11:55:00;;;;;;;1.95;0.50;;;23.70;49.90;;;;;;5016086;28;20416;-58
2023/09/23 11:57:26;;;;;;;0.80;0.40;;;23.70;50.20;;;;;;5029051;28;20040;-57
2023/09/23 11:59:53;;;;;;;2.25;0.85;;;23.70;50.40;;;;;;5026473;28;20492;-59
2023/09/23 12:02:21;;;;;;;1.58;0.52;;;23.70;50.50;;;;;;5008997;28;20087;-58
2023/09/23 12:04:48;;;;;;;0.98;0.45;;;23.70;50.60;;;;;;5029000;28;20109;-61
2023/09/23 12:07:16;;;;;;;1.00;0.60;;;23.70;50.60;;;;;;5042674;28;20087;-59
2023/09/23 12:09:43;;;;;;;1.95;0.55;;;23.70;50.80;;;;;;5027940;28;20049;-59
2023/09/23 12:12:12;;;;;;;7.55;0.80;;;23.70;50.90;;;;;;5042069;28;20436;-59
2023/09/23 12:14:42;;;;;;;1.83;0.57;;;23.70;51.00;;;;;;5010244;28;20373;-60
2023/09/23 12:17:15;;;;;;;0.70;0.38;;;23.70;51.10;;;;;;5028138;28;20116;-58
2023/09/23 12:19:44;;;;;;;1.52;0.60;;;23.70;51.20;;;;;;5023403;28;20525;-60
2023/09/23 12:22:12;;;;;;;1.80;0.50;;;23.70;51.30;;;;;;5027928;28;20085;-58
2023/09/23 12:24:39;;;;;;;1.58;0.60;;;23.70;51.40;;;;;;5026886;28;20055;-58
2023/09/23 12:27:05;;;;;;;6.60;0.68;;;23.70;51.50;;;;;;5006864;28;20030;-60
2023/09/23 12:29:31;;;;;;;2.22;0.50;;;23.70;51.60;;;;;;5009175;28;20132;-61
2023/09/23 12:31:57;;;;;;;1.83;0.60;;;23.70;51.70;;;;;;5027898;28;20030;-62
2023/09/23 12:34:23;;;;;;;1.92;0.60;;;23.80;51.80;;;;;;5014635;28;20102;-60
2023/09/23 12:36:49;;;;;;;1.15;0.60;;;23.70;51.80;;;;;;5029158;28;20140;-60
2023/09/23 12:39:16;;;;;;;1.27;0.45;;;23.80;51.80;;;;;;5031312;28;20108;-61
2023/09/23 12:41:42;;;;;;;0.80;0.40;;;23.70;51.80;;;;;;5030410;28;20044;-63
2023/09/23 12:44:09;;;;;;;1.15;0.60;;;23.80;51.90;;;;;;5023219;28;20025;-60
2023/09/23 12:46:35;;;;;;;1.60;0.45;;;23.80;51.90;;;;;;5024527;28;20119;-59
2023/09/23 12:49:02;;;;;;;1.90;0.73;;;23.80;51.80;;;;;;4993050;28;20066;-60